Time;durP1;ratioP1;P1;durP2;ratioP2;P2;SDS_P1;SDS_P2;PMS_P1;PMS_P2;Temp;Humidity;BMP_temperature;BMP_pressure;BME280_temperature;BME280_humidity;BME280_pressure;Samples;Min_cycle;Max_cycle;Signal;HPM_P1;HPM_P2
2023/11/14 00:01:03;;;;;;;;;;;10.10;89.20;;;;;;5007768;28;19929;-62
2023/11/14 00:03:38;;;;;;;;;;;10.00;89.50;;;;;;5009271;28;20791;-64
2023/11/14 00:06:12;;;;;;;;;;;10.00;89.30;;;;;;5008899;28;19968;-64
2023/11/14 00:08:47;;;;;;;;;;;10.00;89.40;;;;;;5008671;28;19929;-63
2023/11/14 00:11:21;;;;;;;;;;;10.00;89.40;;;;;;5006561;28;19934;-63
2023/11/14 00:13:55;;;;;;;;;;;10.00;89.50;;;;;;5003390;28;21066;-65
2023/11/14 00:16:28;;;;;;;;;;;9.90;89.40;;;;;;5007100;28;19929;-64
2023/11/14 00:19:01;;;;;;;;;;;9.90;89.40;;;;;;5008558;28;19987;-64
2023/11/14 00:21:35;;;;;;;;;;;9.90;89.40;;;;;;5006544;28;19961;-66
2023/11/14 00:24:10;;;;;;;;;;;9.90;89.30;;;;;;4995431;28;20369;-66
2023/11/14 00:26:44;;;;;;;;;;;9.90;89.30;;;;;;5024835;28;19933;-67
2023/11/14 00:29:10;;;;;;;;;;;9.90;89.20;;;;;;5028403;28;19925;-67
2023/11/14 00:31:44;;;;;;;;;;;9.90;89.10;;;;;;5025626;28;20368;-67
2023/11/14 00:34:17;;;;;;;;;;;9.90;89.20;;;;;;5013196;28;20023;-67
2023/11/14 00:36:50;;;;;;;;;;;9.80;89.00;;;;;;5025741;28;20035;-67
2023/11/14 00:39:27;;;;;;;;;;;9.80;89.20;;;;;;5026726;28;19929;-66
2023/11/14 00:42:00;;;;;;;;;;;9.80;89.20;;;;;;5001127;28;19937;-67
2023/11/14 00:44:33;;;;;;;;;;;9.80;89.10;;;;;;5021054;28;19933;-67
2023/11/14 00:47:06;;;;;;;;;;;9.80;89.40;;;;;;5008079;28;20442;-67
2023/11/14 00:49:39;;;;;;;;;;;9.70;89.20;;;;;;5000494;28;20840;-66
2023/11/14 00:52:12;;;;;;;;;;;9.80;89.20;;;;;;5013904;28;20039;-67
2023/11/14 00:54:47;;;;;;;;;;;9.70;89.20;;;;;;5003652;28;20636;-67
2023/11/14 00:57:21;;;;;;;;;;;9.70;89.10;;;;;;5018261;28;19929;-67
2023/11/14 00:59:54;;;;;;;;;;;9.80;89.10;;;;;;5005335;28;20052;-66
2023/11/14 01:02:30;;;;;;;;;;;9.70;89.00;;;;;;5028363;28;19931;-67
2023/11/14 01:05:03;;;;;;;;;;;9.70;88.90;;;;;;5026452;28;19939;-67
2023/11/14 01:07:36;;;;;;;;;;;9.70;88.90;;;;;;5027115;28;19983;-68
2023/11/14 01:10:11;;;;;;;;;;;9.70;88.70;;;;;;5025917;28;19929;-67
2023/11/14 01:12:44;;;;;;;;;;;9.70;88.80;;;;;;5022286;28;20024;-67
2023/11/14 01:15:17;;;;;;;;;;;9.70;88.70;;;;;;5028759;28;20308;-67
2023/11/14 01:17:52;;;;;;;;;;;9.70;88.80;;;;;;5018295;28;19929;-66
2023/11/14 01:20:22;;;;;;;;;;;9.70;88.60;;;;;;5030396;28;19929;-67
2023/11/14 01:22:58;;;;;;;;;;;9.70;88.70;;;;;;5029508;28;20358;-66
2023/11/14 01:25:33;;;;;;;;;;;9.60;88.70;;;;;;5029175;28;19931;-67
2023/11/14 01:28:07;;;;;;;;;;;9.70;88.60;;;;;;5030439;28;20394;-65
2023/11/14 01:30:40;;;;;;;;;;;9.60;88.40;;;;;;5013272;28;20302;-65
2023/11/14 01:33:13;;;;;;;;;;;9.60;88.40;;;;;;5023013;28;19933;-72
2023/11/14 01:35:46;;;;;;;;;;;9.60;88.50;;;;;;5037234;28;20016;-72
2023/11/14 01:38:19;;;;;;;;;;;9.60;88.40;;;;;;5029735;28;19935;-73
2023/11/14 01:41:00;;;;;;;;;;;9.60;88.40;;;;;;5026361;28;20020;-72
2023/11/14 01:43:41;;;;;;;;;;;9.60;88.50;;;;;;5031330;28;19929;-72
2023/11/14 01:46:15;;;;;;;;;;;9.60;88.40;;;;;;5031562;28;19933;-72
2023/11/14 01:48:50;;;;;;;;;;;9.60;88.40;;;;;;5027060;28;19932;-73
2023/11/14 01:51:17;;;;;;;;;;;9.60;88.30;;;;;;5023367;28;19933;-72
2023/11/14 01:53:51;;;;;;;;;;;9.60;88.30;;;;;;5030668;28;19925;-73
2023/11/14 01:56:26;;;;;;;;;;;9.60;88.20;;;;;;5023451;28;20603;-74
2023/11/14 01:59:00;;;;;;;;;;;9.60;88.30;;;;;;5006546;28;20426;-72
2023/11/14 02:01:27;;;;;;;;;;;9.50;88.20;;;;;;5009539;28;19925;-73
2023/11/14 02:04:09;;;;;;;;;;;9.60;88.20;;;;;;5006135;28;19983;-72
2023/11/14 02:06:42;;;;;;;;;;;9.60;88.20;;;;;;5028712;28;19940;-72
2023/11/14 02:09:15;;;;;;;;;;;9.60;88.20;;;;;;5022726;28;19926;-72
2023/11/14 02:11:50;;;;;;;;;;;9.60;88.30;;;;;;5011286;28;20028;-73
2023/11/14 02:14:23;;;;;;;;;;;9.50;88.10;;;;;;5003508;28;19929;-73
2023/11/14 02:16:56;;;;;;;;;;;9.50;88.10;;;;;;5007952;28;19925;-73
2023/11/14 02:19:31;;;;;;;;;;;9.50;88.10;;;;;;5011934;28;19935;-73
2023/11/14 02:22:04;;;;;;;;;;;9.50;88.10;;;;;;5028086;28;19929;-72
2023/11/14 02:24:39;;;;;;;;;;;9.60;88.00;;;;;;5010316;28;19945;-71
2023/11/14 02:27:14;;;;;;;;;;;9.60;88.00;;;;;;4997499;28;20447;-75
2023/11/14 02:29:48;;;;;;;;;;;9.60;88.00;;;;;;5026499;28;19925;-73
2023/11/14 02:32:22;;;;;;;;;;;9.50;88.00;;;;;;5030058;28;20020;-74
2023/11/14 02:34:55;;;;;;;;;;;9.50;88.10;;;;;;5005057;28;19979;-72
2023/11/14 02:37:28;;;;;;;;;;;9.60;88.10;;;;;;5025680;28;20434;-75
2023/11/14 02:40:03;;;;;;;;;;;9.50;88.00;;;;;;5028433;28;19975;-72
2023/11/14 02:42:37;;;;;;;;;;;9.60;88.00;;;;;;5020921;28;19926;-73
2023/11/14 02:45:11;;;;;;;;;;;9.60;88.10;;;;;;5021824;28;19929;-72
2023/11/14 02:47:44;;;;;;;;;;;9.60;88.00;;;;;;5026034;28;19979;-72
2023/11/14 02:50:21;;;;;;;;;;;9.60;88.00;;;;;;5007757;28;19932;-73
2023/11/14 02:52:54;;;;;;;;;;;9.60;88.10;;;;;;5011688;28;19968;-71
2023/11/14 02:55:21;;;;;;;;;;;9.60;88.10;;;;;;5010361;28;20296;-72
2023/11/14 02:57:55;;;;;;;;;;;9.50;88.10;;;;;;5028876;28;19932;-71
2023/11/14 03:00:29;;;;;;;;;;;9.50;88.00;;;;;;5028619;28;19929;-72
2023/11/14 03:03:03;;;;;;;;;;;9.50;88.00;;;;;;5023827;28;20370;-73
2023/11/14 03:05:36;;;;;;;;;;;9.50;87.90;;;;;;5032844;28;19948;-72
2023/11/14 03:08:10;;;;;;;;;;;9.50;88.00;;;;;;5008827;28;20316;-71
2023/11/14 03:10:46;;;;;;;;;;;9.60;87.90;;;;;;5010422;28;19929;-73
2023/11/14 03:13:23;;;;;;;;;;;9.50;87.90;;;;;;5030719;28;19937;-71
2023/11/14 03:15:57;;;;;;;;;;;9.60;87.70;;;;;;5009790;28;19980;-72
2023/11/14 03:18:30;;;;;;;;;;;9.60;87.80;;;;;;5002376;28;19976;-74
2023/11/14 03:21:03;;;;;;;;;;;9.60;87.80;;;;;;5011480;28;20063;-72
2023/11/14 03:23:37;;;;;;;;;;;9.60;87.80;;;;;;5010485;28;19926;-72
2023/11/14 03:26:10;;;;;;;;;;;9.60;87.70;;;;;;4993483;28;20016;-74
2023/11/14 03:28:44;;;;;;;;;;;9.60;87.60;;;;;;5014104;28;19929;-72
2023/11/14 03:31:22;;;;;;;;;;;9.60;87.50;;;;;;5014648;28;19932;-70
2023/11/14 03:33:55;;;;;;;;;;;9.60;87.50;;;;;;5012717;28;19952;-72
2023/11/14 03:36:29;;;;;;;;;;;9.60;87.40;;;;;;5014074;28;19929;-73
2023/11/14 03:39:03;;;;;;;;;;;9.60;87.40;;;;;;5028772;28;19936;-73
2023/11/14 03:41:36;;;;;;;;;;;9.60;87.60;;;;;;5029208;28;19957;-71
2023/11/14 03:44:10;;;;;;;;;;;9.60;87.60;;;;;;5031128;28;19925;-72
2023/11/14 03:46:44;;;;;;;;;;;9.60;87.50;;;;;;5026962;28;19936;-73
2023/11/14 03:49:17;;;;;;;;;;;9.50;87.40;;;;;;5022352;28;20019;-74
2023/11/14 03:51:51;;;;;;;;;;;9.60;87.30;;;;;;5023700;28;19925;-61
2023/11/14 03:54:24;;;;;;;;;;;9.50;87.40;;;;;;5028957;28;19929;-61
2023/11/14 03:56:58;;;;;;;;;;;9.60;87.40;;;;;;5007964;28;19925;-62
2023/11/14 03:59:32;;;;;;;;;;;9.50;87.30;;;;;;5003887;28;20007;-61
2023/11/14 04:02:06;;;;;;;;;;;9.50;87.20;;;;;;5004703;28;19929;-60
2023/11/14 04:04:39;;;;;;;;;;;9.50;87.30;;;;;;5001627;28;20391;-61
2023/11/14 04:07:14;;;;;;;;;;;9.50;87.40;;;;;;5011597;28;20422;-61
2023/11/14 04:09:47;;;;;;;;;;;9.50;87.20;;;;;;5028193;28;19929;-61
2023/11/14 04:12:20;;;;;;;;;;;9.50;87.20;;;;;;5026691;28;19963;-61
2023/11/14 04:14:54;;;;;;;;;;;9.50;87.20;;;;;;5008936;28;19944;-61
2023/11/14 04:17:28;;;;;;;;;;;9.60;87.40;;;;;;5022164;28;19933;-60
2023/11/14 04:20:02;;;;;;;;;;;9.60;87.10;;;;;;5026294;28;19944;-61
2023/11/14 04:22:35;;;;;;;;;;;9.60;87.10;;;;;;5004710;28;19935;-61
2023/11/14 04:25:01;;;;;;;;;;;9.60;87.20;;;;;;5018837;28;19933;-61
2023/11/14 04:27:35;;;;;;;;;;;9.70;87.50;;;;;;5012757;28;19929;-61
2023/11/14 04:30:10;;;;;;;;;;;9.60;87.10;;;;;;5026390;28;19933;-62
2023/11/14 04:32:43;;;;;;;;;;;9.60;86.90;;;;;;5015593;28;19925;-61
2023/11/14 04:35:19;;;;;;;;;;;9.60;86.80;;;;;;5015138;28;19926;-60
2023/11/14 04:37:55;;;;;;;;;;;9.50;86.60;;;;;;5022992;28;19933;-63
2023/11/14 04:40:29;;;;;;;;;;;9.50;86.80;;;;;;5023237;28;20307;-62
2023/11/14 04:42:56;;;;;;;;;;;9.50;86.80;;;;;;5028941;28;19945;-61
2023/11/14 04:45:30;;;;;;;;;;;9.50;86.80;;;;;;5030644;28;19982;-62
2023/11/14 04:48:04;;;;;;;;;;;9.60;86.80;;;;;;5030765;28;20285;-60
2023/11/14 04:50:37;;;;;;;;;;;9.50;86.80;;;;;;5005200;28;20268;-61
2023/11/14 04:53:10;;;;;;;;;;;9.60;86.90;;;;;;5031234;28;20024;-61
2023/11/14 04:55:43;;;;;;;;;;;9.60;86.80;;;;;;5031617;28;19925;-61
2023/11/14 04:58:16;;;;;;;;;;;9.60;86.60;;;;;;5026972;28;19933;-61
2023/11/14 05:00:50;;;;;;;;;;;9.60;86.60;;;;;;5006593;28;20020;-61
2023/11/14 05:03:24;;;;;;;;;;;9.60;86.60;;;;;;5028471;28;19983;-66
2023/11/14 05:05:50;;;;;;;;;;;9.60;86.60;;;;;;5029642;28;19929;-64
2023/11/14 05:08:24;;;;;;;;;;;9.50;86.70;;;;;;5030908;28;19929;-65
2023/11/14 05:10:50;;;;;;;;;;;9.60;86.60;;;;;;5022207;28;19933;-66
2023/11/14 05:13:24;;;;;;;;;;;9.60;86.70;;;;;;5022911;28;19933;-67
2023/11/14 05:15:59;;;;;;;;;;;9.60;86.80;;;;;;5010628;28;19929;-65
2023/11/14 05:18:32;;;;;;;;;;;9.60;86.70;;;;;;5011598;28;20028;-65
2023/11/14 05:21:06;;;;;;;;;;;9.60;86.60;;;;;;5010867;28;19938;-66
2023/11/14 05:23:39;;;;;;;;;;;9.60;86.60;;;;;;5009908;28;19930;-66
2023/11/14 05:26:12;;;;;;;;;;;9.60;86.70;;;;;;5011853;28;19929;-65
2023/11/14 05:28:51;;;;;;;;;;;9.70;86.60;;;;;;5004705;28;19930;-66
2023/11/14 05:31:26;;;;;;;;;;;9.60;86.70;;;;;;5009850;28;19995;-65
2023/11/14 05:34:00;;;;;;;;;;;9.60;86.70;;;;;;5011724;28;20012;-66
2023/11/14 05:36:33;;;;;;;;;;;9.60;86.70;;;;;;5010574;28;20394;-66
2023/11/14 05:39:06;;;;;;;;;;;9.60;86.70;;;;;;5009360;28;19965;-66
2023/11/14 05:41:41;;;;;;;;;;;9.50;86.60;;;;;;5010753;28;20024;-67
2023/11/14 05:44:14;;;;;;;;;;;9.60;86.80;;;;;;5004515;28;19933;-66
2023/11/14 05:46:49;;;;;;;;;;;9.60;86.60;;;;;;5025185;28;19929;-66
2023/11/14 05:49:23;;;;;;;;;;;9.60;86.80;;;;;;5008156;28;19973;-67
2023/11/14 05:51:56;;;;;;;;;;;9.60;86.80;;;;;;5011149;28;19932;-66
2023/11/14 05:54:29;;;;;;;;;;;9.60;86.80;;;;;;5008668;28;19930;-67
2023/11/14 05:57:02;;;;;;;;;;;9.60;86.80;;;;;;5022162;28;20260;-65
2023/11/14 05:59:35;;;;;;;;;;;9.60;87.00;;;;;;5029828;28;19929;-65
2023/11/14 06:02:09;;;;;;;;;;;9.70;86.80;;;;;;5020380;28;19929;-66
2023/11/14 06:04:43;;;;;;;;;;;9.70;86.70;;;;;;5014351;28;19960;-66
2023/11/14 06:07:16;;;;;;;;;;;9.70;86.80;;;;;;5030511;28;19925;-66
2023/11/14 06:09:50;;;;;;;;;;;9.70;86.80;;;;;;5026544;28;20312;-66
2023/11/14 06:12:23;;;;;;;;;;;9.80;86.80;;;;;;5011868;28;20533;-66
2023/11/14 06:14:56;;;;;;;;;;;9.70;86.70;;;;;;5004404;28;20269;-66
2023/11/14 06:17:30;;;;;;;;;;;9.70;86.80;;;;;;5008126;28;19976;-65
2023/11/14 06:20:06;;;;;;;;;;;9.70;86.90;;;;;;5010027;28;19925;-66
2023/11/14 06:22:40;;;;;;;;;;;9.70;86.90;;;;;;5009861;28;19926;-77
2023/11/14 06:25:13;;;;;;;;;;;9.80;87.00;;;;;;5013200;28;20018;-75
2023/11/14 06:27:46;;;;;;;;;;;9.70;87.00;;;;;;5011147;28;20396;-75
2023/11/14 06:30:26;;;;;;;;;;;9.80;87.00;;;;;;5008291;28;19926;-76
2023/11/14 06:33:04;;;;;;;;;;;9.80;87.10;;;;;;5007663;28;19933;-76
2023/11/14 06:35:37;;;;;;;;;;;9.90;86.90;;;;;;5010522;28;19932;-75
2023/11/14 06:38:10;;;;;;;;;;;9.90;87.00;;;;;;5012094;28;19925;-75
2023/11/14 06:40:44;;;;;;;;;;;9.90;87.00;;;;;;5009112;28;20459;-75
2023/11/14 06:43:18;;;;;;;;;;;9.90;87.00;;;;;;5011184;28;19935;-76
2023/11/14 06:45:51;;;;;;;;;;;9.90;87.10;;;;;;5007931;28;19940;-74
2023/11/14 06:48:25;;;;;;;;;;;9.90;87.10;;;;;;5011064;28;19937;-76
2023/11/14 06:50:59;;;;;;;;;;;9.80;87.10;;;;;;5009202;28;19933;-75
2023/11/14 06:53:35;;;;;;;;;;;9.80;87.10;;;;;;5008609;28;19979;-76
2023/11/14 06:56:19;;;;;;;;;;;9.80;87.10;;;;;;5008602;28;19991;-77
2023/11/14 06:58:53;;;;;;;;;;;9.90;87.20;;;;;;5006520;28;20009;-76
2023/11/14 07:01:26;;;;;;;;;;;9.90;87.20;;;;;;5002543;28;19991;-77
2023/11/14 07:04:00;;;;;;;;;;;9.90;87.20;;;;;;5011856;28;19952;-76
2023/11/14 07:06:34;;;;;;;;;;;10.00;87.20;;;;;;5030219;28;20286;-76
2023/11/14 07:09:07;;;;;;;;;;;10.00;87.00;;;;;;5031754;28;19968;-76
2023/11/14 07:11:40;;;;;;;;;;;10.00;87.10;;;;;;5023808;28;20277;-76
2023/11/14 07:14:14;;;;;;;;;;;10.00;87.10;;;;;;5024612;28;19929;-75
2023/11/14 07:16:47;;;;;;;;;;;10.10;87.10;;;;;;5025809;28;19972;-77
2023/11/14 07:19:24;;;;;;;;;;;10.10;87.10;;;;;;5013578;28;19979;-75
2023/11/14 07:21:57;;;;;;;;;;;10.10;87.10;;;;;;5028657;28;19934;-77
2023/11/14 07:24:25;;;;;;;;;;;10.10;87.10;;;;;;5030274;28;20679;-76
2023/11/14 07:26:58;;;;;;;;;;;10.10;87.10;;;;;;5029912;28;20368;-76
2023/11/14 07:29:31;;;;;;;;;;;10.20;87.00;;;;;;5027406;28;20012;-77
2023/11/14 07:32:06;;;;;;;;;;;10.20;86.80;;;;;;5029322;28;19935;-76
2023/11/14 07:34:41;;;;;;;;;;;10.30;86.70;;;;;;5012089;28;20024;-76
2023/11/14 07:37:14;;;;;;;;;;;10.30;86.70;;;;;;5007997;28;19933;-77
2023/11/14 07:39:47;;;;;;;;;;;10.40;86.60;;;;;;5007853;28;20273;-76
2023/11/14 07:42:20;;;;;;;;;;;10.40;86.60;;;;;;5008004;28;19925;-76
2023/11/14 07:44:53;;;;;;;;;;;10.40;86.60;;;;;;5006112;28;19929;-76
2023/11/14 07:47:20;;;;;;;;;;;10.40;86.50;;;;;;5011414;28;19933;-74
2023/11/14 07:49:54;;;;;;;;;;;10.50;86.60;;;;;;5003491;28;20268;-75
2023/11/14 07:52:28;;;;;;;;;;;10.50;86.60;;;;;;5025235;28;20012;-75
2023/11/14 07:55:03;;;;;;;;;;;10.50;86.50;;;;;;5028375;28;19947;-75
2023/11/14 07:57:36;;;;;;;;;;;10.60;86.40;;;;;;5020087;28;19929;-77
2023/11/14 08:00:11;;;;;;;;;;;10.60;86.40;;;;;;5026173;28;19925;-75
2023/11/14 08:02:44;;;;;;;;;;;10.70;86.30;;;;;;5029503;28;19956;-77
2023/11/14 08:05:12;;;;;;;;;;;10.80;86.30;;;;;;5025475;28;19925;-75
2023/11/14 08:07:45;;;;;;;;;;;10.90;86.20;;;;;;5023948;28;20013;-76
2023/11/14 08:10:18;;;;;;;;;;;10.90;85.90;;;;;;5028516;28;19929;-77
2023/11/14 08:12:51;;;;;;;;;;;10.90;86.10;;;;;;5028750;28;19932;-74
2023/11/14 08:15:24;;;;;;;;;;;10.90;86.10;;;;;;5024833;28;19933;-74
2023/11/14 08:17:58;;;;;;;;;;;10.90;86.10;;;;;;5027247;28;20375;-75
2023/11/14 08:20:32;;;;;;;;;;;10.90;86.00;;;;;;5028557;28;20434;-76
2023/11/14 08:23:05;;;;;;;;;;;11.00;85.90;;;;;;5026486;28;19929;-77
2023/11/14 08:25:38;;;;;;;;;;;11.10;85.70;;;;;;5019564;28;20276;-75
2023/11/14 08:28:29;;;;;;;;;;;11.10;85.70;;;;;;5026380;28;20281;-77
2023/11/14 08:31:08;;;;;;;;;;;11.10;85.80;;;;;;5027795;28;19948;-76
2023/11/14 08:33:43;;;;;;;;;;;11.10;85.80;;;;;;5026789;28;19936;-76
2023/11/14 08:36:17;;;;;;;;;;;11.10;85.60;;;;;;5027138;28;20016;-75
2023/11/14 08:38:51;;;;;;;;;;;11.10;85.60;;;;;;5029217;28;19925;-77
2023/11/14 08:41:18;;;;;;;;;;;11.10;85.70;;;;;;5027487;28;19932;-64
2023/11/14 08:43:52;;;;;;;;;;;11.20;85.60;;;;;;5023663;28;20007;-63
2023/11/14 08:46:25;;;;;;;;;;;11.20;85.50;;;;;;5024777;28;19940;-63
2023/11/14 08:48:58;;;;;;;;;;;11.30;85.50;;;;;;5011157;28;19930;-63
2023/11/14 08:51:32;;;;;;;;;;;11.30;85.50;;;;;;5005569;28;20368;-63
2023/11/14 08:54:06;;;;;;;;;;;11.30;85.40;;;;;;5009342;28;19936;-64
2023/11/14 08:56:40;;;;;;;;;;;11.30;85.30;;;;;;5026857;28;19944;-64
2023/11/14 08:59:15;;;;;;;;;;;11.40;85.30;;;;;;5021101;28;19929;-63
2023/11/14 09:01:48;;;;;;;;;;;11.40;85.30;;;;;;5026076;28;19932;-63
2023/11/14 09:04:15;;;;;;;;;;;11.40;85.20;;;;;;5028710;28;20024;-64
2023/11/14 09:06:49;;;;;;;;;;;11.40;85.10;;;;;;5022899;28;19925;-63
2023/11/14 09:09:23;;;;;;;;;;;11.50;85.10;;;;;;5027184;28;19925;-63
2023/11/14 09:11:57;;;;;;;;;;;11.50;84.80;;;;;;5016580;28;20383;-64
2023/11/14 09:14:31;;;;;;;;;;;11.60;84.80;;;;;;5026923;28;19935;-63
2023/11/14 09:17:04;;;;;;;;;;;11.60;84.70;;;;;;5009916;28;19936;-64
2023/11/14 09:19:37;;;;;;;;;;;11.70;84.60;;;;;;5015230;28;19941;-63
2023/11/14 09:22:11;;;;;;;;;;;11.70;84.40;;;;;;5025689;28;20818;-63
2023/11/14 09:24:45;;;;;;;;;;;11.70;84.50;;;;;;5025379;28;19925;-63
2023/11/14 09:27:18;;;;;;;;;;;11.70;84.50;;;;;;5027075;28;19936;-63
2023/11/14 09:29:51;;;;;;;;;;;11.70;84.50;;;;;;5028167;28;19991;-63
2023/11/14 09:32:24;;;;;;;;;;;11.70;84.40;;;;;;5030800;28;19972;-64
2023/11/14 09:34:57;;;;;;;;;;;11.60;84.30;;;;;;5027005;28;19971;-64
2023/11/14 09:37:31;;;;;;;;;;;11.70;84.30;;;;;;5027132;28;19960;-63
2023/11/14 09:40:06;;;;;;;;;;;11.70;84.10;;;;;;5031076;28;19940;-64
2023/11/14 09:42:39;;;;;;;;;;;11.70;84.00;;;;;;5024461;28;20265;-65
2023/11/14 09:45:12;;;;;;;;;;;11.70;84.00;;;;;;5013593;28;19926;-63
2023/11/14 09:47:45;;;;;;;;;;;11.70;84.00;;;;;;5008621;28;19960;-63
2023/11/14 09:50:19;;;;;;;;;;;11.70;84.00;;;;;;5010082;28;19934;-62
2023/11/14 09:52:53;;;;;;;;;;;11.70;84.00;;;;;;5010297;28;19940;-74
2023/11/14 09:55:27;;;;;;;;;;;11.80;83.70;;;;;;5019068;28;20368;-77
2023/11/14 09:57:54;;;;;;;;;;;11.80;83.70;;;;;;5011920;28;19932;-75
2023/11/14 10:00:29;;;;;;;;;;;11.80;83.60;;;;;;5026926;28;19983;-75
2023/11/14 10:03:03;;;;;;;;;;;11.90;83.70;;;;;;5035574;28;19956;-74
2023/11/14 10:05:36;;;;;;;;;;;11.80;83.60;;;;;;5028525;28;19925;-74
2023/11/14 10:08:11;;;;;;;;;;;11.80;83.40;;;;;;5026243;28;19968;-73
2023/11/14 10:11:03;;;;;;;;;;;11.90;83.40;;;;;;5025520;28;19932;-75
2023/11/14 10:13:37;;;;;;;;;;;11.80;83.30;;;;;;5026143;28;19957;-76
2023/11/14 10:16:18;;;;;;;;;;;11.80;83.40;;;;;;5027954;28;20281;-74
2023/11/14 10:18:52;;;;;;;;;;;11.80;83.40;;;;;;5026156;28;22707;-74
2023/11/14 10:21:26;;;;;;;;;;;11.80;83.40;;;;;;5012305;28;19933;-75
2023/11/14 10:24:00;;;;;;;;;;;11.80;83.30;;;;;;5008475;28;19930;-75
2023/11/14 10:26:27;;;;;;;;;;;11.90;83.30;;;;;;5010584;28;20406;-75
2023/11/14 10:29:02;;;;;;;;;;;11.80;83.40;;;;;;5009349;28;20446;-76
2023/11/14 10:31:36;;;;;;;;;;;11.90;83.50;;;;;;5011486;28;19941;-74
2023/11/14 10:34:24;;;;;;;;;;;11.80;83.60;;;;;;5017326;28;19925;-76
2023/11/14 10:36:58;;;;;;;;;;;11.80;83.70;;;;;;5009237;28;20391;-73
2023/11/14 10:39:32;;;;;;;;;;;11.70;83.60;;;;;;5010364;28;19964;-74
2023/11/14 10:42:10;;;;;;;;;;;11.80;83.80;;;;;;5010629;28;19929;-74
2023/11/14 10:44:57;;;;;;;;;;;11.80;83.80;;;;;;5007520;28;19992;-75
2023/11/14 10:47:37;;;;;;;;;;;11.80;83.80;;;;;;5010099;28;19932;-75
2023/11/14 10:50:25;;;;;;;;;;;11.80;83.80;;;;;;5009083;28;19925;-72
2023/11/14 10:52:59;;;;;;;;;;;11.80;83.70;;;;;;5010281;28;20380;-76
2023/11/14 10:55:33;;;;;;;;;;;11.80;83.80;;;;;;5007865;28;19944;-77
2023/11/14 10:58:08;;;;;;;;;;;11.80;83.80;;;;;;5007496;28;19934;-77
2023/11/14 11:00:34;;;;;;;;;;;11.80;83.80;;;;;;5007371;28;19934;-76
2023/11/14 11:03:09;;;;;;;;;;;11.80;83.80;;;;;;5007029;28;19948;-64
2023/11/14 11:05:43;;;;;;;;;;;11.80;83.90;;;;;;5026362;28;20394;-64
2023/11/14 11:08:16;;;;;;;;;;;11.80;83.90;;;;;;5028885;28;20025;-64
2023/11/14 11:10:51;;;;;;;;;;;11.80;83.70;;;;;;5029695;28;20291;-63
2023/11/14 11:13:25;;;;;;;;;;;11.80;83.80;;;;;;5029214;28;19925;-62
2023/11/14 11:15:58;;;;;;;;;;;11.80;83.70;;;;;;5026571;28;19960;-63
2023/11/14 11:18:33;;;;;;;;;;;11.90;83.70;;;;;;5027793;28;19928;-63
2023/11/14 11:21:08;;;;;;;;;;;11.90;83.60;;;;;;5014384;28;20039;-64
2023/11/14 11:24:02;;;;;;;;;;;11.90;83.50;;;;;;5018038;28;19955;-63
2023/11/14 11:26:50;;;;;;;;;;;12.00;83.40;;;;;;5027516;28;19966;-64
2023/11/14 11:29:38;;;;;;;;;;;11.90;83.30;;;;;;5023300;28;20040;-63
2023/11/14 11:32:28;;;;;;;;;;;12.00;83.30;;;;;;5020487;28;20006;-63
2023/11/14 11:35:20;;;;;;;;;;;12.00;83.20;;;;;;5018626;28;20024;-64
2023/11/14 11:37:54;;;;;;;;;;;11.90;83.30;;;;;;5021911;28;19933;-63
2023/11/14 11:40:28;;;;;;;;;;;11.90;83.20;;;;;;5008187;28;19926;-63
2023/11/14 11:42:55;;;;;;;;;;;11.90;83.10;;;;;;5007306;28;20518;-65
2023/11/14 11:45:30;;;;;;;;;;;11.90;83.10;;;;;;5008577;28;19960;-64
2023/11/14 11:48:05;;;;;;;;;;;12.00;83.10;;;;;;5028155;28;20012;-63
2023/11/14 11:50:40;;;;;;;;;;;12.00;83.00;;;;;;5026638;28;20503;-64
2023/11/14 11:53:14;;;;;;;;;;;12.00;83.00;;;;;;5027458;28;20403;-63
2023/11/14 11:55:48;;;;;;;;;;;12.00;83.00;;;;;;5026946;28;19996;-64
2023/11/14 11:58:41;;;;;;;;;;;12.00;83.10;;;;;;5021637;28;19929;-63
2023/11/14 12:01:17;;;;;;;;;;;12.00;83.00;;;;;;5026723;28;19925;-64
2023/11/14 12:03:51;;;;;;;;;;;11.90;82.90;;;;;;5026122;28;19925;-63
2023/11/14 12:06:25;;;;;;;;;;;12.00;83.00;;;;;;5026743;28;20324;-63
2023/11/14 12:08:58;;;;;;;;;;;12.10;82.80;;;;;;5027878;28;19932;-63
2023/11/14 12:11:34;;;;;;;;;;;12.10;82.70;;;;;;5033063;28;19932;-65
2023/11/14 12:14:07;;;;;;;;;;;12.10;82.70;;;;;;5010818;28;19936;-66
2023/11/14 12:16:40;;;;;;;;;;;12.10;82.70;;;;;;5007675;28;20405;-66
2023/11/14 12:19:14;;;;;;;;;;;12.20;82.70;;;;;;5006423;28;19945;-65
2023/11/14 12:21:48;;;;;;;;;;;12.20;82.60;;;;;;5006564;28;19983;-65
2023/11/14 12:24:15;;;;;;;;;;;12.10;82.60;;;;;;5007655;28;19992;-65
2023/11/14 12:26:52;;;;;;;;;;;12.10;82.50;;;;;;5008299;28;20376;-66
2023/11/14 12:29:25;;;;;;;;;;;12.10;82.50;;;;;;5008081;28;19925;-65
2023/11/14 12:31:58;;;;;;;;;;;12.10;82.50;;;;;;5006359;28;19940;-66
2023/11/14 12:34:32;;;;;;;;;;;12.20;82.40;;;;;;5009461;28;19925;-65
2023/11/14 12:37:07;;;;;;;;;;;12.20;82.40;;;;;;5005319;28;19932;-65
2023/11/14 12:39:40;;;;;;;;;;;12.20;82.40;;;;;;5015941;28;19937;-65
2023/11/14 12:42:13;;;;;;;;;;;12.30;82.30;;;;;;5008265;28;19932;-67
2023/11/14 12:44:40;;;;;;;;;;;12.30;82.20;;;;;;4997587;28;19929;-65
2023/11/14 12:47:14;;;;;;;;;;;12.30;82.10;;;;;;5003727;28;20376;-65
2023/11/14 12:49:49;;;;;;;;;;;12.30;82.20;;;;;;5015048;28;19964;-66
2023/11/14 12:52:24;;;;;;;;;;;12.40;82.10;;;;;;5025454;28;19929;-66
2023/11/14 12:54:58;;;;;;;;;;;12.40;82.00;;;;;;5026862;28;19933;-66
2023/11/14 12:57:39;;;;;;;;;;;12.40;82.00;;;;;;5026312;28;19929;-65
2023/11/14 13:00:14;;;;;;;;;;;12.40;82.00;;;;;;5017373;28;19933;-66
2023/11/14 13:02:47;;;;;;;;;;;12.40;81.80;;;;;;5028456;28;19934;-66
2023/11/14 13:05:21;;;;;;;;;;;12.40;81.70;;;;;;5024796;28;19926;-65
2023/11/14 13:07:55;;;;;;;;;;;12.50;81.70;;;;;;5012615;28;19930;-66
2023/11/14 13:10:28;;;;;;;;;;;12.50;81.50;;;;;;5011923;28;19956;-64
2023/11/14 13:13:01;;;;;;;;;;;12.50;81.60;;;;;;5010664;28;20032;-65
2023/11/14 13:15:34;;;;;;;;;;;12.60;81.70;;;;;;5008680;28;19929;-67
2023/11/14 13:18:08;;;;;;;;;;;12.60;81.50;;;;;;5027357;28;19933;-66
2023/11/14 13:20:36;;;;;;;;;;;12.60;81.40;;;;;;5039886;28;19929;-66
2023/11/14 13:23:09;;;;;;;;;;;12.60;81.40;;;;;;5011519;28;20380;-76
2023/11/14 13:25:42;;;;;;;;;;;12.60;81.40;;;;;;5012220;28;19935;-73
2023/11/14 13:28:15;;;;;;;;;;;12.60;81.40;;;;;;5011578;28;19948;-73
2023/11/14 13:30:49;;;;;;;;;;;12.60;81.50;;;;;;5010700;28;20023;-75
2023/11/14 13:33:22;;;;;;;;;;;12.70;81.30;;;;;;5013114;28;19974;-74
2023/11/14 13:35:56;;;;;;;;;;;12.60;81.30;;;;;;5012657;28;19941;-76
2023/11/14 13:38:30;;;;;;;;;;;12.60;81.10;;;;;;5031325;28;19925;-75
2023/11/14 13:41:06;;;;;;;;;;;12.60;81.20;;;;;;5009167;28;19926;-76
2023/11/14 13:43:39;;;;;;;;;;;12.60;81.30;;;;;;5012058;28;19925;-76
2023/11/14 13:46:13;;;;;;;;;;;12.60;81.30;;;;;;5008410;28;19937;-76
2023/11/14 13:48:47;;;;;;;;;;;12.60;81.30;;;;;;5011668;28;19932;-77
2023/11/14 13:51:21;;;;;;;;;;;12.60;81.20;;;;;;5010857;28;19934;-74
2023/11/14 13:53:55;;;;;;;;;;;12.60;81.20;;;;;;5010112;28;19933;-76
2023/11/14 13:56:28;;;;;;;;;;;12.60;81.30;;;;;;5009463;28;19940;-76
2023/11/14 13:59:01;;;;;;;;;;;12.60;81.40;;;;;;5007233;28;19937;-77
2023/11/14 14:01:34;;;;;;;;;;;12.60;81.40;;;;;;5011651;28;19937;-76
2023/11/14 14:04:07;;;;;;;;;;;12.50;81.50;;;;;;5013435;28;19930;-75
2023/11/14 14:06:41;;;;;;;;;;;12.50;81.70;;;;;;5016794;28;19930;-71
2023/11/14 14:09:16;;;;;;;;;;;12.40;81.50;;;;;;5017883;28;19925;-75
2023/11/14 14:11:49;;;;;;;;;;;12.50;81.50;;;;;;5018493;28;19972;-73
2023/11/14 14:14:23;;;;;;;;;;;12.50;81.40;;;;;;5019121;28;19994;-73
2023/11/14 14:16:56;;;;;;;;;;;12.50;81.30;;;;;;5018352;28;19929;-74
2023/11/14 14:19:30;;;;;;;;;;;12.50;81.40;;;;;;5019519;28;19940;-74
2023/11/14 14:22:11;;;;;;;;;;;12.40;81.30;;;;;;5015153;28;19926;-75
2023/11/14 14:24:45;;;;;;;;;;;12.50;81.20;;;;;;5017038;28;19929;-74
2023/11/14 14:27:19;;;;;;;;;;;12.50;81.20;;;;;;5014139;28;19932;-72
2023/11/14 14:29:53;;;;;;;;;;;12.50;81.10;;;;;;5016409;28;20016;-74
2023/11/14 14:32:27;;;;;;;;;;;12.50;81.10;;;;;;5017013;28;19983;-74
2023/11/14 14:35:00;;;;;;;;;;;12.40;81.20;;;;;;5033737;28;19933;-73
2023/11/14 14:37:35;;;;;;;;;;;12.40;81.20;;;;;;5036213;28;19926;-74
2023/11/14 14:40:09;;;;;;;;;;;12.40;81.30;;;;;;5033193;28;19929;-73
2023/11/14 14:42:45;;;;;;;;;;;12.40;81.30;;;;;;5037095;28;20028;-73
2023/11/14 14:45:18;;;;;;;;;;;12.40;81.50;;;;;;5031802;28;19944;-73
2023/11/14 14:47:51;;;;;;;;;;;12.40;81.50;;;;;;5026437;28;19968;-73
2023/11/14 14:50:25;;;;;;;;;;;12.40;81.60;;;;;;5023394;28;19932;-73
2023/11/14 14:52:59;;;;;;;;;;;12.40;81.60;;;;;;5019573;28;19935;-74
2023/11/14 14:55:33;;;;;;;;;;;12.40;81.50;;;;;;5026456;28;19929;-73
2023/11/14 14:58:09;;;;;;;;;;;12.40;81.50;;;;;;5024411;28;19925;-73
2023/11/14 15:00:43;;;;;;;;;;;12.40;81.50;;;;;;5023193;28;20205;-74
2023/11/14 15:03:18;;;;;;;;;;;12.40;81.50;;;;;;5023602;28;19938;-73